createdAt,value
2022-09-25T00:00:49.010Z,19.33
2022-09-25T00:03:18.873Z,18.90
2022-09-25T00:05:47.141Z,21.40
2022-09-25T00:08:15.539Z,18.55
2022-09-25T00:10:44.094Z,18.05
2022-09-25T00:13:12.218Z,19.10
2022-09-25T00:15:40.249Z,16.42
2022-09-25T00:18:08.386Z,17.38
2022-09-25T00:20:37.826Z,18.63
2022-09-25T00:23:05.941Z,17.80
2022-09-25T00:25:33.994Z,16.88
2022-09-25T00:28:02.360Z,18.98
2022-09-25T00:30:30.470Z,16.92
2022-09-25T00:32:58.565Z,16.42
2022-09-25T00:35:26.672Z,16.42
2022-09-25T00:37:56.090Z,18.58
2022-09-25T00:40:24.708Z,18.38
2022-09-25T00:42:52.847Z,15.95
2022-09-25T00:45:21.706Z,16.75
2022-09-25T00:47:54.123Z,16.75
2022-09-25T00:50:32.618Z,17.60
2022-09-25T00:53:04.766Z,18.50
2022-09-25T00:55:33.708Z,18.00
2022-09-25T00:58:01.737Z,15.60
2022-09-25T01:00:29.759Z,17.67
2022-09-25T01:02:57.849Z,16.15
2022-09-25T01:05:27.832Z,15.82
2022-09-25T01:07:57.171Z,16.50
2022-09-25T01:10:26.569Z,16.45
2022-09-25T01:12:54.776Z,18.95
2022-09-25T01:15:24.985Z,19.48
2022-09-25T01:17:59.445Z,17.95
2022-09-25T01:20:39.551Z,18.55
2022-09-25T01:23:12.989Z,14.48
2022-09-25T01:25:52.168Z,14.85
2022-09-25T01:28:32.777Z,17.02
2022-09-25T01:31:04.221Z,18.15
2022-09-25T01:33:35.174Z,15.05
2022-09-25T01:36:04.380Z,16.10
2022-09-25T01:38:34.431Z,15.85
2022-09-25T01:41:06.117Z,16.83
2022-09-25T01:43:36.313Z,19.08
2022-09-25T01:46:07.150Z,18.45
2022-09-25T01:48:35.259Z,16.35
2022-09-25T01:51:04.384Z,15.40
2022-09-25T01:53:34.770Z,14.68
2022-09-25T01:56:05.596Z,16.23
2022-09-25T01:58:35.288Z,15.20
2022-09-25T02:01:06.500Z,16.23
2022-09-25T02:03:37.755Z,16.70
2022-09-25T02:06:07.418Z,17.23
2022-09-25T02:08:37.158Z,18.92
2022-09-25T02:11:06.599Z,14.02
2022-09-25T02:13:38.289Z,14.63
2022-09-25T02:16:10.024Z,15.60
2022-09-25T02:19:06.883Z,15.35
2022-09-25T02:21:45.633Z,14.02
2022-09-25T02:24:18.490Z,15.35
2022-09-25T02:26:46.579Z,14.93
2022-09-25T02:29:15.444Z,13.70
2022-09-25T02:31:47.841Z,14.32
2022-09-25T02:34:16.181Z,13.45
2022-09-25T02:36:45.026Z,15.60
2022-09-25T02:39:13.962Z,15.15
2022-09-25T02:41:50.314Z,15.30
2022-09-25T02:44:20.867Z,14.55
2022-09-25T02:46:55.834Z,15.68
2022-09-25T02:49:25.696Z,13.80
2022-09-25T02:51:57.713Z,14.35
2022-09-25T02:54:26.779Z,14.00
2022-09-25T02:56:59.973Z,15.13
2022-09-25T02:59:33.859Z,13.95
2022-09-25T03:02:03.857Z,13.73
2022-09-25T03:04:32.222Z,13.75
2022-09-25T03:07:00.265Z,13.38
2022-09-25T03:09:28.315Z,17.00
2022-09-25T03:11:56.959Z,15.18
2022-09-25T03:14:25.854Z,13.55
2022-09-25T03:16:56.282Z,19.33
2022-09-25T03:19:25.883Z,13.85
2022-09-25T03:21:54.168Z,14.77
2022-09-25T03:24:22.226Z,12.98
2022-09-25T03:26:50.363Z,12.65
2022-09-25T03:29:18.588Z,12.75
2022-09-25T03:31:46.601Z,14.40
2022-09-25T03:34:15.439Z,14.48
2022-09-25T03:36:47.327Z,13.60
2022-09-25T03:39:17.730Z,12.73
2022-09-25T03:41:47.762Z,12.73
2022-09-25T03:44:15.801Z,14.77
2022-09-25T03:46:43.863Z,13.10
2022-09-25T03:49:12.764Z,13.35
2022-09-25T03:51:42.082Z,13.02
2022-09-25T03:54:11.565Z,12.35
2022-09-25T03:56:39.962Z,11.13
2022-09-25T03:59:08.017Z,11.90
2022-09-25T04:01:37.021Z,13.82
2022-09-25T04:04:05.195Z,13.02
2022-09-25T04:06:33.230Z,15.52
2022-09-25T04:09:01.280Z,13.13
2022-09-25T04:11:31.915Z,12.52
2022-09-25T04:13:59.982Z,15.15
2022-09-25T04:16:29.450Z,11.82
2022-09-25T04:18:57.565Z,14.32
2022-09-25T04:21:25.584Z,15.85
2022-09-25T04:24:10.951Z,14.52
2022-09-25T04:26:40.406Z,12.60
2022-09-25T04:29:09.103Z,13.05
2022-09-25T04:31:37.201Z,12.63
2022-09-25T04:34:04.442Z,13.50
2022-09-25T04:36:32.526Z,13.95
2022-09-25T04:39:00.552Z,11.18
2022-09-25T04:41:28.571Z,13.50
2022-09-25T04:43:57.972Z,14.73
2022-09-25T04:46:26.047Z,14.00
2022-09-25T04:48:54.133Z,14.18
2022-09-25T04:51:22.172Z,12.80
2022-09-25T04:53:50.215Z,11.45
2022-09-25T04:56:18.276Z,12.57
2022-09-25T04:58:47.416Z,12.80
2022-09-25T05:01:17.921Z,12.93
2022-09-25T05:03:48.957Z,14.18
2022-09-25T05:06:17.124Z,13.98
2022-09-25T05:08:45.149Z,11.65
2022-09-25T05:11:13.580Z,13.45
2022-09-25T05:13:43.887Z,16.35
2022-09-25T05:16:11.961Z,13.80
2022-09-25T05:18:41.627Z,12.65
2022-09-25T05:21:09.665Z,13.68
2022-09-25T05:23:37.709Z,14.25
2022-09-25T05:26:05.903Z,12.38
2022-09-25T05:28:34.053Z,11.63
2022-09-25T05:31:03.598Z,13.60
2022-09-25T05:33:32.095Z,13.13
2022-09-25T05:36:03.419Z,13.23
2022-09-25T05:38:33.540Z,13.45
2022-09-25T05:41:04.332Z,12.52
2022-09-25T05:43:32.480Z,11.88
2022-09-25T05:46:00.869Z,12.30
2022-09-25T05:48:28.918Z,12.80
2022-09-25T05:50:57.685Z,12.52
2022-09-25T05:53:27.883Z,12.65
2022-09-25T05:55:58.148Z,12.27
2022-09-25T05:58:26.264Z,15.73
2022-09-25T06:00:54.934Z,12.23
2022-09-25T06:03:24.222Z,11.50
2022-09-25T06:05:52.328Z,12.88
2022-09-25T06:08:20.344Z,13.18
2022-09-25T06:10:53.776Z,12.85
2022-09-25T06:13:21.988Z,12.00
2022-09-25T06:15:52.425Z,12.02
2022-09-25T06:18:21.158Z,12.38
2022-09-25T06:20:49.392Z,13.18
2022-09-25T06:23:17.483Z,13.00
2022-09-25T06:25:45.567Z,12.15
2022-09-25T06:28:14.991Z,12.68
2022-09-25T06:30:43.036Z,14.00
2022-09-25T06:33:12.932Z,13.07
2022-09-25T06:35:42.447Z,15.20
2022-09-25T06:38:10.560Z,11.38
2022-09-25T06:40:41.503Z,15.43
2022-09-25T06:43:11.488Z,13.27
2022-09-25T06:45:41.369Z,11.88
2022-09-25T06:48:10.293Z,14.65
2022-09-25T06:50:41.015Z,12.43
2022-09-25T06:53:09.297Z,12.48
2022-09-25T06:55:37.579Z,12.57
2022-09-25T06:58:06.298Z,11.52
2022-09-25T07:00:34.516Z,11.50
2022-09-25T07:03:21.505Z,13.93
2022-09-25T07:05:49.682Z,14.23
2022-09-25T07:08:21.013Z,12.15
2022-09-25T07:10:50.239Z,16.08
2022-09-25T07:13:18.596Z,12.60
2022-09-25T07:15:52.774Z,12.50
2022-09-25T07:18:22.366Z,14.15
2022-09-25T07:20:50.802Z,10.77
2022-09-25T07:23:19.629Z,15.20
2022-09-25T07:25:47.984Z,12.82
2022-09-25T07:28:16.457Z,14.18
2022-09-25T07:30:44.576Z,11.65
2022-09-25T07:33:13.088Z,12.32
2022-09-25T07:35:42.579Z,14.77
2022-09-25T07:38:10.662Z,16.60
2022-09-25T07:40:38.912Z,14.05
2022-09-25T07:43:06.993Z,13.43
2022-09-25T07:45:35.849Z,12.20
2022-09-25T07:48:04.539Z,12.52
2022-09-25T07:50:32.979Z,11.60
2022-09-25T07:53:02.427Z,12.35
2022-09-25T07:55:30.519Z,12.23
2022-09-25T07:57:59.143Z,14.63
2022-09-25T08:00:27.213Z,14.27
2022-09-25T08:02:59.027Z,14.35
2022-09-25T08:05:27.480Z,11.32
2022-09-25T08:07:55.638Z,11.48
2022-09-25T08:10:25.089Z,11.52
2022-09-25T08:12:53.830Z,12.65
2022-09-25T08:15:22.103Z,13.95
2022-09-25T08:17:52.412Z,12.68
2022-09-25T08:20:20.584Z,11.85
2022-09-25T08:22:48.739Z,16.35
2022-09-25T08:25:17.137Z,11.45
2022-09-25T08:27:46.568Z,11.43
2022-09-25T08:30:17.887Z,12.98
2022-09-25T08:32:45.933Z,13.32
2022-09-25T08:35:14.420Z,13.98
2022-09-25T08:37:43.140Z,15.30
2022-09-25T08:40:17.820Z,15.55
2022-09-25T08:42:48.328Z,12.98
2022-09-25T08:45:43.849Z,12.48
2022-09-25T08:48:35.059Z,11.88
2022-09-25T08:51:05.423Z,13.85
2022-09-25T08:53:34.443Z,13.70
2022-09-25T08:56:17.614Z,12.60
2022-09-25T08:58:51.591Z,13.27
2022-09-25T09:01:22.202Z,11.82
2022-09-25T09:03:54.479Z,12.00
2022-09-25T09:06:22.803Z,13.25
2022-09-25T09:08:53.865Z,10.57
2022-09-25T09:11:24.719Z,14.88
2022-09-25T09:13:56.198Z,10.52
2022-09-25T09:16:28.406Z,12.63
2022-09-25T09:18:56.547Z,12.55
2022-09-25T09:21:35.076Z,14.65
2022-09-25T09:24:07.922Z,18.83
2022-09-25T09:26:43.978Z,21.05
2022-09-25T09:29:23.487Z,15.55
2022-09-25T09:31:56.729Z,17.35
2022-09-25T09:34:53.574Z,17.20
2022-09-25T09:37:26.008Z,16.98
2022-09-25T09:40:00.154Z,19.00
2022-09-25T09:42:33.244Z,18.73
2022-09-25T09:45:09.826Z,19.52
2022-09-25T09:47:42.062Z,18.73
2022-09-25T09:50:32.662Z,14.18
2022-09-25T09:53:02.712Z,17.35
2022-09-25T09:55:35.432Z,20.73
2022-09-25T09:58:08.713Z,23.10
2022-09-25T10:00:39.007Z,20.05
2022-09-25T10:03:13.004Z,31.65
2022-09-25T10:05:43.954Z,32.75
2022-09-25T10:08:12.070Z,31.00
2022-09-25T10:10:41.346Z,39.17
2022-09-25T10:13:14.640Z,35.00
2022-09-25T10:15:46.105Z,36.42
2022-09-25T10:18:14.256Z,32.65
2022-09-25T10:20:43.466Z,33.40
2022-09-25T10:23:19.113Z,29.02
2022-09-25T10:25:47.146Z,38.70
2022-09-25T10:28:30.433Z,35.92
2022-09-25T10:31:00.060Z,29.67
2022-09-25T10:33:29.204Z,31.58
2022-09-25T10:35:57.453Z,31.40
2022-09-25T10:38:39.475Z,31.88
2022-09-25T10:41:09.016Z,34.65
2022-09-25T10:43:37.269Z,29.25
2022-09-25T10:46:13.693Z,31.00
2022-09-25T10:48:59.333Z,27.50
2022-09-25T10:51:27.412Z,29.63
2022-09-25T10:54:11.307Z,25.45
2022-09-25T10:56:39.453Z,30.38
2022-09-25T10:59:14.961Z,27.13
2022-09-25T11:01:44.659Z,26.27
2022-09-25T11:04:15.944Z,24.08
2022-09-25T11:06:45.516Z,33.40
2022-09-25T11:09:14.958Z,27.70
2022-09-25T11:11:44.191Z,23.40
2022-09-25T11:14:21.021Z,25.08
2022-09-25T11:16:55.392Z,20.85
2022-09-25T11:19:29.048Z,22.00
2022-09-25T11:22:07.827Z,24.58
2022-09-25T11:24:42.749Z,22.33
2022-09-25T11:27:13.099Z,22.88
2022-09-25T11:29:45.425Z,21.25
2022-09-25T11:32:19.823Z,21.58
2022-09-25T11:35:00.406Z,18.73
2022-09-25T11:37:31.627Z,20.20
2022-09-25T11:40:20.865Z,21.88
2022-09-25T11:42:52.853Z,16.70
2022-09-25T11:45:24.736Z,22.25
2022-09-25T11:47:56.235Z,21.25
2022-09-25T11:50:35.719Z,20.67
2022-09-25T11:53:07.165Z,18.80
2022-09-25T11:55:43.476Z,20.13
2022-09-25T11:58:36.472Z,19.98
2022-09-25T12:01:09.638Z,18.73
2022-09-25T12:03:47.729Z,15.68
2022-09-25T12:06:24.604Z,17.98
2022-09-25T12:09:00.412Z,19.45
2022-09-25T12:11:31.698Z,17.73
2022-09-25T12:14:01.382Z,16.95
2022-09-25T12:16:34.850Z,16.05
2022-09-25T12:19:14.581Z,16.05
2022-09-25T12:21:47.893Z,20.00
2022-09-25T12:24:32.019Z,15.18
2022-09-25T12:27:04.214Z,16.08
2022-09-25T12:29:50.255Z,14.98
2022-09-25T12:32:25.127Z,11.90
2022-09-25T12:35:09.458Z,15.55
2022-09-25T12:37:43.596Z,16.75
2022-09-25T12:40:16.430Z,15.55
2022-09-25T12:42:46.224Z,13.65
2022-09-25T12:45:17.148Z,13.57
2022-09-25T12:47:47.008Z,17.23
2022-09-25T12:50:17.718Z,14.68
2022-09-25T12:52:47.346Z,12.98
2022-09-25T12:55:18.810Z,13.48
2022-09-25T12:57:49.063Z,15.60
2022-09-25T13:00:20.750Z,11.48
2022-09-25T13:02:53.511Z,13.10
2022-09-25T13:05:25.258Z,12.80
2022-09-25T13:07:55.421Z,13.43
2022-09-25T13:10:27.512Z,13.15
2022-09-25T13:12:56.874Z,16.35
2022-09-25T13:15:26.420Z,13.02
2022-09-25T13:17:55.725Z,12.52
2022-09-25T13:20:50.558Z,11.10
2022-09-25T13:23:26.198Z,13.10
2022-09-25T13:25:58.091Z,12.38
2022-09-25T13:28:27.063Z,10.68
2022-09-25T13:31:13.573Z,12.68
2022-09-25T13:33:47.252Z,9.45
2022-09-25T13:36:31.914Z,11.10
2022-09-25T13:39:18.426Z,11.13
2022-09-25T13:41:56.390Z,12.90
2022-09-25T13:44:58.980Z,12.57
2022-09-25T13:48:01.765Z,11.15
2022-09-25T13:50:37.388Z,11.85
2022-09-25T13:53:37.314Z,11.70
2022-09-25T13:56:25.109Z,10.60
2022-09-25T13:59:04.990Z,9.30
2022-09-25T14:01:35.979Z,11.20
2022-09-25T14:04:10.220Z,10.30
2022-09-25T14:06:41.575Z,9.95
2022-09-25T14:09:12.564Z,12.55
2022-09-25T14:11:41.768Z,11.98
2022-09-25T14:14:13.551Z,9.95
2022-09-25T14:16:44.757Z,10.05
2022-09-25T14:19:16.931Z,10.80
2022-09-25T14:21:45.362Z,10.70
2022-09-25T14:24:21.164Z,9.98
2022-09-25T14:26:51.354Z,11.30
2022-09-25T14:29:20.286Z,10.05
2022-09-25T14:31:53.130Z,12.45
2022-09-25T14:34:33.124Z,11.77
2022-09-25T14:37:06.288Z,12.23
2022-09-25T14:39:42.307Z,12.50
2022-09-25T14:42:33.450Z,14.38
2022-09-25T14:45:22.449Z,13.35
2022-09-25T14:47:51.433Z,12.23
2022-09-25T14:50:21.703Z,11.02
2022-09-25T14:52:50.499Z,10.77
2022-09-25T14:55:21.072Z,20.25
2022-09-25T14:57:49.505Z,17.42
2022-09-25T15:00:20.339Z,13.73
2022-09-25T15:02:50.399Z,11.32
2022-09-25T15:05:20.137Z,10.80
2022-09-25T15:07:48.399Z,11.45
2022-09-25T15:10:29.616Z,11.93
2022-09-25T15:13:07.389Z,10.63
2022-09-25T15:15:35.758Z,10.57
2022-09-25T15:18:04.756Z,10.55
2022-09-25T15:20:33.564Z,13.88
2022-09-25T15:23:04.709Z,12.13
2022-09-25T15:25:35.260Z,11.90
2022-09-25T15:28:05.746Z,11.70
2022-09-25T15:30:34.491Z,11.82
2022-09-25T15:33:02.578Z,13.48
2022-09-25T15:35:32.302Z,11.95
2022-09-25T15:38:05.296Z,15.20
2022-09-25T15:40:34.862Z,10.30
2022-09-25T15:43:03.012Z,11.68
2022-09-25T15:45:42.777Z,10.43
2022-09-25T15:48:23.066Z,9.93
2022-09-25T15:50:51.168Z,12.85
2022-09-25T15:53:22.011Z,23.55
2022-09-25T15:55:51.762Z,24.05
2022-09-25T15:58:19.930Z,35.80
2022-09-25T16:01:17.889Z,27.40
2022-09-25T16:04:08.429Z,31.55
2022-09-25T16:06:45.063Z,33.80
2022-09-25T16:09:28.136Z,34.67
2022-09-25T16:12:18.130Z,31.10
2022-09-25T16:14:46.230Z,34.22
2022-09-25T16:17:17.999Z,32.05
2022-09-25T16:19:46.245Z,25.63
2022-09-25T16:22:19.434Z,26.75
2022-09-25T16:24:50.828Z,30.05
2022-09-25T16:27:24.983Z,27.65
2022-09-25T16:29:53.037Z,24.40
2022-09-25T16:32:21.205Z,24.27
2022-09-25T16:34:56.024Z,22.58
2022-09-25T16:37:24.712Z,25.50
2022-09-25T16:40:08.974Z,28.85
2022-09-25T16:42:40.471Z,22.75
2022-09-25T16:45:16.546Z,20.92
2022-09-25T16:47:49.208Z,26.67
2022-09-25T16:50:17.717Z,24.90
2022-09-25T16:52:45.775Z,25.58
2022-09-25T16:55:23.118Z,25.17
2022-09-25T16:57:53.133Z,19.08
2022-09-25T17:00:25.978Z,23.02
2022-09-25T17:02:54.203Z,23.20
2022-09-25T17:05:23.437Z,16.48
2022-09-25T17:07:54.852Z,20.95
2022-09-25T17:10:28.603Z,15.48
2022-09-25T17:13:00.772Z,17.63
2022-09-25T17:15:32.842Z,16.50
2022-09-25T17:18:02.117Z,17.63
2022-09-25T17:20:30.918Z,19.92
2022-09-25T17:23:00.122Z,22.65
2022-09-25T17:25:38.169Z,21.67
2022-09-25T17:28:08.813Z,17.02
2022-09-25T17:30:37.204Z,15.90
2022-09-25T17:33:06.201Z,18.88
2022-09-25T17:35:39.088Z,15.70
2022-09-25T17:38:08.304Z,17.70
2022-09-25T17:40:36.472Z,17.27
2022-09-25T17:43:04.679Z,16.98
2022-09-25T17:45:39.182Z,19.20
2022-09-25T17:48:07.264Z,15.80
2022-09-25T17:50:36.226Z,18.50
2022-09-25T17:53:05.130Z,13.43
2022-09-25T17:55:34.132Z,17.23
2022-09-25T17:58:02.328Z,23.92
2022-09-25T18:00:30.401Z,17.02
2022-09-25T18:02:59.969Z,19.23
2022-09-25T18:05:29.597Z,20.50
2022-09-25T18:07:59.020Z,15.23
2022-09-25T18:10:29.272Z,17.45
2022-09-25T18:12:59.134Z,17.30
2022-09-25T18:15:27.462Z,15.73
2022-09-25T18:17:55.557Z,17.52
2022-09-25T18:20:43.377Z,14.13
2022-09-25T18:23:11.530Z,18.65
2022-09-25T18:25:40.800Z,20.52
2022-09-25T18:28:08.893Z,15.60
2022-09-25T18:30:38.180Z,15.38
2022-09-25T18:33:06.427Z,17.48
2022-09-25T18:35:35.851Z,17.60
2022-09-25T18:38:03.948Z,13.73
2022-09-25T18:40:32.054Z,15.13
2022-09-25T18:43:01.434Z,19.25
2022-09-25T18:45:29.608Z,16.40
2022-09-25T18:48:00.069Z,16.38
2022-09-25T18:50:28.774Z,14.52
2022-09-25T18:52:58.710Z,13.77
2022-09-25T18:55:26.928Z,17.45
2022-09-25T18:57:55.005Z,14.40
2022-09-25T19:00:23.115Z,16.67
2022-09-25T19:02:51.267Z,13.93
2022-09-25T19:05:20.269Z,16.42
2022-09-25T19:07:48.395Z,16.25
2022-09-25T19:10:18.121Z,14.45
2022-09-25T19:12:46.337Z,16.10
2022-09-25T19:15:14.531Z,14.82
2022-09-25T19:17:42.566Z,19.10
2022-09-25T19:20:11.389Z,17.20
2022-09-25T19:22:41.060Z,17.98
2022-09-25T19:25:11.184Z,14.82
2022-09-25T19:27:40.668Z,13.05
2022-09-25T19:30:09.539Z,14.48
2022-09-25T19:32:38.802Z,15.13
2022-09-25T19:35:07.332Z,16.00
2022-09-25T19:37:35.381Z,13.68
2022-09-25T19:40:21.376Z,19.63
2022-09-25T19:42:50.963Z,13.80
2022-09-25T19:45:21.070Z,13.88
2022-09-25T19:47:49.320Z,16.65
2022-09-25T19:50:18.871Z,19.77
2022-09-25T19:52:50.942Z,14.07
2022-09-25T19:55:19.778Z,24.73
2022-09-25T19:57:47.995Z,21.35
2022-09-25T20:00:18.231Z,18.20
2022-09-25T20:02:47.501Z,19.17
2022-09-25T20:05:17.161Z,14.25
2022-09-25T20:07:45.193Z,17.05
2022-09-25T20:10:13.770Z,14.80
2022-09-25T20:12:41.919Z,22.02
2022-09-25T20:15:10.542Z,15.02
2022-09-25T20:17:39.951Z,17.65
2022-09-25T20:20:08.485Z,15.93
2022-09-25T20:22:36.672Z,14.88
2022-09-25T20:25:04.930Z,16.30
2022-09-25T20:27:32.996Z,17.58
2022-09-25T20:30:01.045Z,18.27
2022-09-25T20:32:29.168Z,15.05
2022-09-25T20:34:58.554Z,16.58
2022-09-25T20:37:26.813Z,21.67
2022-09-25T20:39:54.979Z,21.70
2022-09-25T20:42:23.024Z,21.40
2022-09-25T20:44:51.461Z,16.85
2022-09-25T20:47:19.588Z,18.30
2022-09-25T20:49:47.636Z,20.92
2022-09-25T20:52:17.062Z,20.45
2022-09-25T20:54:45.119Z,16.30
2022-09-25T20:57:13.149Z,20.90
2022-09-25T20:59:41.210Z,17.73
2022-09-25T21:02:10.180Z,21.85
2022-09-25T21:04:38.471Z,19.48
2022-09-25T21:07:06.513Z,17.33
2022-09-25T21:09:35.906Z,19.05
2022-09-25T21:12:05.788Z,17.70
2022-09-25T21:14:35.205Z,22.10
2022-09-25T21:17:03.385Z,20.40
2022-09-25T21:19:31.851Z,24.63
2022-09-25T21:21:59.905Z,28.90
2022-09-25T21:24:27.962Z,26.73
2022-09-25T21:26:57.360Z,29.05
2022-09-25T21:29:25.403Z,27.80
2022-09-25T21:31:54.737Z,20.90
2022-09-25T21:34:22.765Z,26.23
2022-09-25T21:36:50.798Z,28.73
2022-09-25T21:39:20.981Z,49.33
2022-09-25T21:41:49.574Z,29.77
2022-09-25T21:44:20.235Z,26.95
2022-09-25T21:46:48.285Z,29.15
2022-09-25T21:49:17.231Z,26.25
2022-09-25T21:51:45.841Z,24.48
2022-09-25T21:54:14.098Z,20.83
2022-09-25T21:56:43.193Z,21.65
2022-09-25T21:59:11.339Z,26.27
2022-09-25T22:01:40.863Z,20.50
2022-09-25T22:04:09.812Z,22.70
2022-09-25T22:06:38.930Z,19.90
2022-09-25T22:09:07.834Z,24.08
2022-09-25T22:11:37.229Z,26.73
2022-09-25T22:14:05.874Z,23.48
2022-09-25T22:16:35.599Z,25.10
2022-09-25T22:19:08.000Z,22.98
2022-09-25T22:21:36.208Z,24.02
2022-09-25T22:24:04.300Z,25.90
2022-09-25T22:26:32.661Z,23.92
2022-09-25T22:29:00.695Z,21.90
2022-09-25T22:31:29.793Z,21.58
2022-09-25T22:34:00.481Z,23.02
2022-09-25T22:36:30.227Z,21.20
2022-09-25T22:38:58.314Z,21.77
2022-09-25T22:41:26.451Z,22.02
2022-09-25T22:43:56.349Z,22.35
2022-09-25T22:46:26.867Z,23.48
2022-09-25T22:48:54.965Z,21.98
2022-09-25T22:51:23.840Z,30.75
2022-09-25T22:53:53.685Z,25.45
2022-09-25T22:56:23.884Z,19.70
2022-09-25T22:58:52.709Z,24.00
2022-09-25T23:01:22.432Z,23.00
2022-09-25T23:03:53.297Z,23.50
2022-09-25T23:06:21.370Z,23.75
2022-09-25T23:08:53.760Z,18.50
2022-09-25T23:11:22.005Z,26.35
2022-09-25T23:13:50.677Z,20.30
2022-09-25T23:16:19.173Z,25.60
2022-09-25T23:18:47.258Z,24.45
2022-09-25T23:21:15.342Z,25.48
2022-09-25T23:23:43.389Z,21.17
2022-09-25T23:26:12.868Z,22.27
2022-09-25T23:28:41.483Z,27.08
2022-09-25T23:31:10.290Z,22.27
2022-09-25T23:33:38.498Z,20.55
2022-09-25T23:36:07.617Z,20.38
2022-09-25T23:38:35.909Z,20.70
2022-09-25T23:41:04.198Z,22.10
2022-09-25T23:43:33.652Z,19.77
2022-09-25T23:46:01.833Z,21.50
2022-09-25T23:48:29.963Z,21.15
2022-09-25T23:50:58.004Z,22.45
2022-09-25T23:53:26.173Z,19.65
2022-09-25T23:55:54.304Z,17.02
2022-09-25T23:58:22.358Z,19.80
